Time;durP1;ratioP1;P1;durP2;ratioP2;P2;SDS_P1;SDS_P2;PMS_P1;PMS_P2;Temp;Humidity;BMP_temperature;BMP_pressure;BME280_temperature;BME280_humidity;BME280_pressure;Samples;Min_cycle;Max_cycle;Signal;HPM_P1;HPM_P2
2023/12/01 00:01:24;;;;;;;36.17;21.23;;;;;;;;;;5282425;28;20052;-75
2023/12/01 00:03:56;;;;;;;35.00;21.83;;;;;;;;;;5282331;28;20086;-74
2023/12/01 00:06:27;;;;;;;34.17;20.50;;;;;;;;;;5282788;28;20052;-74
2023/12/01 00:08:58;;;;;;;32.48;20.04;;;;;;;;;;5282885;28;20020;-75
2023/12/01 00:11:29;;;;;;;33.07;20.90;;;;;;;;;;5281807;28;20065;-75
2023/12/01 00:14:00;;;;;;;33.53;21.50;;;;;;;;;;5282531;28;20024;-75
2023/12/01 00:16:31;;;;;;;37.54;22.32;;;;;;;;;;5282502;28;20546;-75
2023/12/01 00:19:03;;;;;;;37.83;22.73;;;;;;;;;;5281739;28;20468;-75
2023/12/01 00:21:34;;;;;;;37.27;21.70;;;;;;;;;;5282491;28;20455;-75
2023/12/01 00:24:05;;;;;;;38.40;23.47;;;;;;;;;;5281674;28;20074;-74
2023/12/01 00:26:36;;;;;;;38.00;22.47;;;;;;;;;;5282269;28;20029;-75
2023/12/01 00:29:07;;;;;;;38.00;23.40;;;;;;;;;;5282324;28;20111;-75
2023/12/01 00:31:39;;;;;;;35.43;21.73;;;;;;;;;;5281552;28;20475;-75
2023/12/01 00:34:10;;;;;;;38.32;23.48;;;;;;;;;;5282273;28;20379;-75
2023/12/01 00:36:42;;;;;;;39.00;22.97;;;;;;;;;;5282102;28;20081;-75
2023/12/01 00:39:13;;;;;;;37.23;22.00;;;;;;;;;;5281641;28;20110;-75
2023/12/01 00:41:44;;;;;;;35.77;20.93;;;;;;;;;;5282256;28;20021;-76
2023/12/01 00:44:16;;;;;;;37.00;21.87;;;;;;;;;;5281896;28;20031;-75
2023/12/01 00:46:47;;;;;;;35.37;21.47;;;;;;;;;;5281098;28;20046;-75
2023/12/01 00:49:19;;;;;;;38.30;22.63;;;;;;;;;;5281853;28;20024;-76
2023/12/01 00:51:50;;;;;;;38.67;21.70;;;;;;;;;;5281141;28;20020;-76
2023/12/01 00:54:21;;;;;;;37.30;22.33;;;;;;;;;;5281790;28;20020;-75
2023/12/01 00:56:52;;;;;;;35.84;20.86;;;;;;;;;;5282348;28;20028;-76
2023/12/01 00:59:24;;;;;;;37.44;20.14;;;;;;;;;;5280717;28;20025;-76
2023/12/01 01:01:55;;;;;;;37.07;21.33;;;;;;;;;;5282011;28;20016;-75
2023/12/01 01:04:26;;;;;;;36.47;20.13;;;;;;;;;;5280795;28;20020;-75
2023/12/01 01:06:58;;;;;;;37.93;20.97;;;;;;;;;;5280942;28;20082;-75
2023/12/01 01:09:29;;;;;;;39.93;22.27;;;;;;;;;;5281711;28;20021;-75
2023/12/01 01:12:01;;;;;;;33.27;20.00;;;;;;;;;;5281658;28;20036;-75
2023/12/01 01:14:32;;;;;;;33.00;18.43;;;;;;;;;;5281001;28;20414;-75
2023/12/01 01:17:04;;;;;;;37.13;21.93;;;;;;;;;;5281805;28;20062;-76
2023/12/01 01:19:35;;;;;;;39.07;21.43;;;;;;;;;;5281545;28;20024;-75
2023/12/01 01:22:06;;;;;;;37.77;21.27;;;;;;;;;;5280784;28;20555;-75
2023/12/01 01:24:37;;;;;;;40.13;21.67;;;;;;;;;;5281418;28;20096;-75
2023/12/01 01:27:08;;;;;;;36.17;19.77;;;;;;;;;;5280616;28;20059;-75
2023/12/01 01:29:40;;;;;;;41.40;22.57;;;;;;;;;;5281440;28;20027;-76
2023/12/01 01:32:11;;;;;;;37.47;21.20;;;;;;;;;;5281414;28;20447;-75
2023/12/01 01:34:42;;;;;;;42.53;21.70;;;;;;;;;;5280719;28;20482;-75
2023/12/01 01:37:14;;;;;;;33.30;18.97;;;;;;;;;;5281485;28;20408;-76
2023/12/01 01:39:45;;;;;;;41.57;22.10;;;;;;;;;;5281579;28;20025;-76
2023/12/01 01:42:16;;;;;;;40.43;22.10;;;;;;;;;;5280831;28;20330;-75
2023/12/01 01:44:47;;;;;;;40.20;21.67;;;;;;;;;;5281481;28;20067;-76
2023/12/01 01:47:19;;;;;;;36.97;21.37;;;;;;;;;;5281341;28;20471;-76
2023/12/01 01:49:50;;;;;;;40.17;22.83;;;;;;;;;;5280489;28;20032;-76
2023/12/01 01:52:21;;;;;;;39.77;22.20;;;;;;;;;;5280952;28;20487;-75
2023/12/01 01:54:52;;;;;;;44.07;22.80;;;;;;;;;;5281677;28;20051;-75
2023/12/01 01:57:24;;;;;;;43.03;22.60;;;;;;;;;;5280105;28;20032;-76
2023/12/01 01:59:56;;;;;;;41.17;22.43;;;;;;;;;;5281094;28;20124;-75
2023/12/01 02:02:27;;;;;;;45.70;22.97;;;;;;;;;;5280354;28;20523;-75
2023/12/01 02:04:59;;;;;;;47.30;23.80;;;;;;;;;;5281307;28;20028;-76
2023/12/01 02:07:31;;;;;;;44.23;22.63;;;;;;;;;;5281001;28;20029;-76
2023/12/01 02:10:02;;;;;;;43.80;22.83;;;;;;;;;;5280538;28;20391;-75
2023/12/01 02:12:33;;;;;;;42.67;22.47;;;;;;;;;;5281055;28;20045;-76
2023/12/01 02:15:04;;;;;;;42.50;22.13;;;;;;;;;;5282897;28;20020;-75
2023/12/01 02:17:37;;;;;;;41.53;22.00;;;;;;;;;;5284431;28;20031;-75
2023/12/01 02:20:14;;;;;;;39.23;21.80;;;;;;;;;;5284851;28;20048;-76
2023/12/01 02:22:46;;;;;;;42.87;22.60;;;;;;;;;;5284882;28;20375;-76
2023/12/01 02:25:17;;;;;;;41.00;20.43;;;;;;;;;;5283953;28;20045;-76
2023/12/01 02:27:48;;;;;;;42.93;21.50;;;;;;;;;;5284820;28;20028;-76
2023/12/01 02:30:20;;;;;;;42.53;21.03;;;;;;;;;;5284115;28;20082;-76
2023/12/01 02:32:52;;;;;;;35.93;19.40;;;;;;;;;;5284782;28;20024;-76
2023/12/01 02:35:28;;;;;;;47.10;22.73;;;;;;;;;;5284166;28;20031;-76
2023/12/01 02:37:59;;;;;;;43.80;22.30;;;;;;;;;;5283910;28;20028;-76
2023/12/01 02:40:30;;;;;;;42.53;21.60;;;;;;;;;;5284282;28;20028;-75
2023/12/01 02:43:01;;;;;;;46.40;22.60;;;;;;;;;;5284339;28;20016;-75
2023/12/01 02:45:32;;;;;;;46.07;22.67;;;;;;;;;;5283532;28;20468;-75
2023/12/01 02:48:04;;;;;;;41.02;21.00;;;;;;;;;;5284211;28;20487;-75
2023/12/01 02:50:36;;;;;;;48.47;24.77;;;;;;;;;;5284577;28;20438;-76
2023/12/01 02:53:07;;;;;;;44.03;23.60;;;;;;;;;;5283498;28;20076;-75
2023/12/01 02:55:38;;;;;;;44.30;22.57;;;;;;;;;;5283999;28;20074;-75
2023/12/01 02:58:09;;;;;;;45.07;21.97;;;;;;;;;;5284069;28;20541;-75
2023/12/01 03:00:43;;;;;;;43.60;21.33;;;;;;;;;;5283624;28;20071;-75
2023/12/01 03:03:14;;;;;;;45.63;22.47;;;;;;;;;;5284132;28;20028;-75
2023/12/01 03:05:45;;;;;;;46.20;22.93;;;;;;;;;;5283280;28;20049;-75
2023/12/01 03:08:17;;;;;;;46.27;23.07;;;;;;;;;;5283720;28;20020;-75
2023/12/01 03:10:49;;;;;;;43.83;22.07;;;;;;;;;;5283633;28;20101;-75
2023/12/01 03:13:20;;;;;;;44.97;22.93;;;;;;;;;;5283041;28;20024;-75
2023/12/01 03:15:51;;;;;;;50.23;24.33;;;;;;;;;;5283792;28;20030;-75
2023/12/01 03:18:22;;;;;;;46.30;23.60;;;;;;;;;;5283048;28;20028;-74
2023/12/01 03:20:54;;;;;;;46.87;23.63;;;;;;;;;;5283075;28;20426;-74
2023/12/01 03:23:25;;;;;;;47.53;24.63;;;;;;;;;;5283036;28;20063;-75
2023/12/01 03:25:56;;;;;;;55.50;26.17;;;;;;;;;;5283308;28;20028;-75
2023/12/01 03:28:27;;;;;;;48.27;23.47;;;;;;;;;;5282699;28;20020;-75
2023/12/01 03:30:58;;;;;;;46.40;22.80;;;;;;;;;;5283521;28;20039;-75
2023/12/01 03:33:30;;;;;;;47.40;23.13;;;;;;;;;;5283305;28;20183;-75
2023/12/01 03:36:02;;;;;;;50.07;23.70;;;;;;;;;;5283137;28;20452;-76
2023/12/01 03:38:33;;;;;;;46.23;20.70;;;;;;;;;;5283212;28;20111;-75
2023/12/01 03:41:05;;;;;;;49.90;23.27;;;;;;;;;;5282393;28;20025;-76
2023/12/01 03:43:36;;;;;;;50.23;21.80;;;;;;;;;;5283244;28;20024;-75
2023/12/01 03:46:08;;;;;;;54.90;23.73;;;;;;;;;;5282990;28;20082;-75
2023/12/01 03:48:39;;;;;;;57.83;24.60;;;;;;;;;;5282261;28;20055;-75
2023/12/01 03:51:11;;;;;;;49.97;23.30;;;;;;;;;;5283116;28;20523;-75
2023/12/01 03:53:42;;;;;;;50.80;23.63;;;;;;;;;;5282878;28;20044;-75
2023/12/01 03:56:13;;;;;;;61.83;27.50;;;;;;;;;;5282185;28;20017;-75
2023/12/01 03:58:44;;;;;;;58.67;27.43;;;;;;;;;;5282806;28;20023;-75
2023/12/01 04:01:15;;;;;;;67.40;28.50;;;;;;;;;;5282794;28;20024;-75
2023/12/01 04:03:47;;;;;;;66.63;29.20;;;;;;;;;;5282197;28;20460;-75
2023/12/01 04:06:18;;;;;;;72.87;32.43;;;;;;;;;;5282758;28;20041;-75
2023/12/01 04:08:53;;;;;;;66.67;27.67;;;;;;;;;;5281960;28;20104;-75
2023/12/01 04:11:24;;;;;;;66.90;26.80;;;;;;;;;;5282335;28;20016;-75
2023/12/01 04:13:56;;;;;;;65.30;27.50;;;;;;;;;;5283121;28;20013;-76
2023/12/01 04:16:27;;;;;;;73.77;29.73;;;;;;;;;;5281730;28;20020;-76
2023/12/01 04:18:58;;;;;;;69.40;26.73;;;;;;;;;;5282487;28;20053;-75
2023/12/01 04:21:29;;;;;;;62.93;25.27;;;;;;;;;;5282315;28;20017;-75
2023/12/01 04:24:01;;;;;;;63.43;25.23;;;;;;;;;;5281839;28;20024;-75
2023/12/01 04:26:32;;;;;;;62.20;25.57;;;;;;;;;;5282368;28;20079;-75
2023/12/01 04:29:03;;;;;;;63.33;24.73;;;;;;;;;;5282286;28;20017;-76
2023/12/01 04:31:34;;;;;;;58.58;24.28;;;;;;;;;;5281504;28;20028;-75
2023/12/01 04:34:05;;;;;;;58.04;22.58;;;;;;;;;;5282078;28;20025;-74
2023/12/01 04:36:37;;;;;;;58.34;23.62;;;;;;;;;;5282267;28;20016;-76
2023/12/01 04:39:14;;;;;;;55.77;22.37;;;;;;;;;;5281434;28;20047;-76
2023/12/01 04:41:45;;;;;;;62.37;25.57;;;;;;;;;;5281958;28;20146;-75
2023/12/01 04:44:16;;;;;;;63.83;24.20;;;;;;;;;;5281310;28;20115;-76
2023/12/01 04:46:47;;;;;;;76.53;27.83;;;;;;;;;;5281894;28;20048;-76
2023/12/01 04:49:18;;;;;;;65.56;25.90;;;;;;;;;;5281882;28;20392;-75
2023/12/01 04:51:50;;;;;;;65.80;25.33;;;;;;;;;;5281186;28;20380;-75
2023/12/01 04:54:21;;;;;;;67.13;25.13;;;;;;;;;;5281914;28;20024;-76
2023/12/01 04:56:52;;;;;;;64.57;26.00;;;;;;;;;;5282181;28;20023;-75
2023/12/01 04:59:23;;;;;;;64.63;26.53;;;;;;;;;;5280785;28;20031;-75
2023/12/01 05:01:54;;;;;;;63.50;26.80;;;;;;;;;;5282252;28;20099;-75
2023/12/01 05:04:25;;;;;;;70.17;29.00;;;;;;;;;;5281598;28;20083;-76
2023/12/01 05:06:57;;;;;;;71.48;27.40;;;;;;;;;;5281192;28;20111;-75
2023/12/01 05:09:28;;;;;;;61.10;26.13;;;;;;;;;;5281591;28;20024;-76
2023/12/01 05:11:59;;;;;;;64.47;27.93;;;;;;;;;;5281465;28;20158;-76
2023/12/01 05:14:30;;;;;;;75.43;30.40;;;;;;;;;;5281348;28;20472;-75
2023/12/01 05:17:02;;;;;;;73.26;29.60;;;;;;;;;;5281723;28;20012;-76
2023/12/01 05:19:33;;;;;;;78.67;30.70;;;;;;;;;;5280888;28;20015;-75
2023/12/01 05:22:04;;;;;;;60.10;27.18;;;;;;;;;;5281388;28;20539;-76
2023/12/01 05:24:35;;;;;;;67.17;27.17;;;;;;;;;;5281400;28;20478;-75
2023/12/01 05:27:08;;;;;;;69.60;28.93;;;;;;;;;;5280883;28;20439;-75
2023/12/01 05:29:39;;;;;;;75.90;29.90;;;;;;;;;;5281599;28;20096;-76
2023/12/01 05:32:10;;;;;;;74.23;27.63;;;;;;;;;;5281452;28;20021;-75
2023/12/01 05:34:42;;;;;;;71.50;28.53;;;;;;;;;;5280704;28;20074;-75
2023/12/01 05:37:14;;;;;;;67.07;26.53;;;;;;;;;;5281543;28;20429;-74
2023/12/01 05:39:45;;;;;;;69.57;28.33;;;;;;;;;;5281447;28;20029;-75
2023/12/01 05:42:16;;;;;;;67.63;29.23;;;;;;;;;;5280883;28;20035;-75
2023/12/01 05:44:47;;;;;;;79.87;32.73;;;;;;;;;;5281452;28;20063;-75
2023/12/01 05:47:18;;;;;;;69.77;30.07;;;;;;;;;;5280380;28;20045;-75
2023/12/01 05:49:50;;;;;;;74.97;30.73;;;;;;;;;;5282377;28;20012;-75
2023/12/01 05:52:21;;;;;;;69.57;29.70;;;;;;;;;;5284900;28;20522;-75
2023/12/01 05:54:52;;;;;;;73.13;30.80;;;;;;;;;;5284951;28;20467;-75
2023/12/01 05:57:23;;;;;;;71.27;30.83;;;;;;;;;;5284841;28;20074;-75
2023/12/01 05:59:55;;;;;;;77.53;34.87;;;;;;;;;;5285866;28;20417;-75
2023/12/01 06:02:26;;;;;;;68.70;31.07;;;;;;;;;;5284325;28;20031;-76
2023/12/01 06:04:59;;;;;;;66.20;29.97;;;;;;;;;;5285274;28;20017;-76
2023/12/01 06:07:30;;;;;;;64.90;31.27;;;;;;;;;;5284989;28;20090;-76
2023/12/01 06:10:02;;;;;;;59.47;27.40;;;;;;;;;;5284084;28;20025;-76
2023/12/01 06:12:33;;;;;;;53.23;26.07;;;;;;;;;;5285032;28;20024;-76
2023/12/01 06:15:05;;;;;;;58.83;28.93;;;;;;;;;;5284919;28;20024;-75
2023/12/01 06:17:37;;;;;;;52.67;27.50;;;;;;;;;;5284177;28;20024;-76
2023/12/01 06:20:17;;;;;;;51.80;27.27;;;;;;;;;;5284825;28;20051;-76
2023/12/01 06:23:05;;;;;;;54.47;26.70;;;;;;;;;;5284242;28;20425;-75
2023/12/01 06:25:37;;;;;;;51.23;26.10;;;;;;;;;;5284924;28;20047;-76
2023/12/01 06:28:09;;;;;;;50.10;25.50;;;;;;;;;;5284546;28;20037;-76
2023/12/01 06:30:40;;;;;;;53.10;28.20;;;;;;;;;;5284000;28;20039;-75
2023/12/01 06:33:12;;;;;;;48.20;24.80;;;;;;;;;;5284411;28;20035;-76
2023/12/01 06:35:44;;;;;;;51.53;25.87;;;;;;;;;;5284242;28;20017;-76
2023/12/01 06:38:15;;;;;;;48.47;24.57;;;;;;;;;;5283542;28;20026;-75
2023/12/01 06:40:46;;;;;;;49.58;26.54;;;;;;;;;;5284103;28;20048;-76
2023/12/01 06:43:18;;;;;;;50.53;25.93;;;;;;;;;;5284311;28;20107;-76
2023/12/01 06:45:50;;;;;;;47.60;26.07;;;;;;;;;;5283699;28;20021;-76
2023/12/01 06:48:21;;;;;;;42.93;23.70;;;;;;;;;;5283772;28;20479;-76
2023/12/01 06:50:53;;;;;;;44.97;23.37;;;;;;;;;;5283636;28;20024;-75
2023/12/01 06:53:24;;;;;;;48.77;25.07;;;;;;;;;;5283302;28;20513;-75
2023/12/01 06:55:55;;;;;;;43.13;23.27;;;;;;;;;;5284178;28;20396;-76
2023/12/01 06:58:26;;;;;;;48.10;25.47;;;;;;;;;;5283303;28;20112;-76
2023/12/01 07:00:57;;;;;;;45.33;23.33;;;;;;;;;;5283242;28;20028;-76
2023/12/01 07:03:29;;;;;;;44.73;23.23;;;;;;;;;;5284037;28;20087;-75
2023/12/01 07:06:01;;;;;;;45.77;22.53;;;;;;;;;;5283276;28;20040;-75
2023/12/01 07:08:32;;;;;;;44.73;23.37;;;;;;;;;;5283938;28;20055;-75
2023/12/01 07:11:03;;;;;;;47.54;23.78;;;;;;;;;;5284008;28;20100;-76
2023/12/01 07:13:34;;;;;;;42.93;22.53;;;;;;;;;;5283096;28;20021;-76
2023/12/01 07:16:09;;;;;;;41.03;21.07;;;;;;;;;;5283876;28;20032;-75
2023/12/01 07:18:43;;;;;;;44.50;23.03;;;;;;;;;;5282940;28;20055;-76
2023/12/01 07:21:14;;;;;;;44.83;22.77;;;;;;;;;;5283878;28;20032;-76
2023/12/01 07:23:47;;;;;;;46.20;21.63;;;;;;;;;;5283338;28;20020;-75
2023/12/01 07:26:18;;;;;;;40.47;20.70;;;;;;;;;;5282701;28;20108;-77
2023/12/01 07:28:49;;;;;;;40.13;20.87;;;;;;;;;;5283704;28;20100;-75
2023/12/01 07:31:21;;;;;;;38.50;21.00;;;;;;;;;;5283230;28;20099;-77
2023/12/01 07:33:52;;;;;;;39.03;20.87;;;;;;;;;;5282744;28;20029;-75
2023/12/01 07:36:23;;;;;;;43.07;22.77;;;;;;;;;;5283110;28;20035;-76
2023/12/01 07:38:54;;;;;;;38.17;20.97;;;;;;;;;;5283508;28;20075;-76
2023/12/01 07:41:25;;;;;;;37.93;20.57;;;;;;;;;;5282179;28;20040;-76
2023/12/01 07:43:57;;;;;;;36.77;21.50;;;;;;;;;;5283133;28;20059;-76
2023/12/01 07:46:31;;;;;;;40.73;22.67;;;;;;;;;;5283027;28;20082;-77
2023/12/01 07:49:03;;;;;;;42.10;21.83;;;;;;;;;;5282431;28;20024;-79
2023/12/01 07:51:35;;;;;;;38.80;21.57;;;;;;;;;;5283074;28;20013;-78
2023/12/01 07:54:06;;;;;;;52.93;28.07;;;;;;;;;;5281968;28;20068;-80
2023/12/01 07:56:37;;;;;;;44.87;24.90;;;;;;;;;;5282927;28;20050;-80
2023/12/01 07:59:09;;;;;;;40.63;22.67;;;;;;;;;;5282683;28;20032;-79
2023/12/01 08:01:41;;;;;;;43.93;22.73;;;;;;;;;;5282119;28;20458;-80
2023/12/01 08:04:13;;;;;;;44.70;22.60;;;;;;;;;;5282744;28;20020;-81
2023/12/01 08:06:44;;;;;;;41.60;22.47;;;;;;;;;;5282784;28;20395;-80
2023/12/01 08:09:16;;;;;;;38.93;21.57;;;;;;;;;;5282247;28;20471;-79
2023/12/01 08:11:47;;;;;;;45.17;22.90;;;;;;;;;;5282735;28;20036;-79
2023/12/01 08:14:19;;;;;;;42.90;22.27;;;;;;;;;;5282479;28;20020;-80
2023/12/01 08:16:50;;;;;;;36.63;20.73;;;;;;;;;;5281816;28;20031;-79
2023/12/01 08:19:21;;;;;;;44.27;22.27;;;;;;;;;;5282197;28;20013;-78
2023/12/01 08:21:52;;;;;;;37.70;19.53;;;;;;;;;;5282621;28;20047;-79
2023/12/01 08:24:25;;;;;;;37.90;20.90;;;;;;;;;;5281248;28;20015;-79
2023/12/01 08:26:56;;;;;;;42.30;22.73;;;;;;;;;;5279223;28;20036;-80
2023/12/01 08:29:27;;;;;;;42.50;21.90;;;;;;;;;;5281026;28;20577;-81
2023/12/01 08:32:00;;;;;;;36.20;20.30;;;;;;;;;;5282284;28;20471;-80
2023/12/01 08:34:31;;;;;;;39.83;22.23;;;;;;;;;;5281114;28;20021;-82
2023/12/01 08:37:02;;;;;;;39.43;21.10;;;;;;;;;;5281146;28;20391;-79
2023/12/01 08:39:33;;;;;;;38.57;19.90;;;;;;;;;;5281699;28;20017;-79
2023/12/01 08:42:04;;;;;;;37.70;20.53;;;;;;;;;;5280119;28;20361;-80
2023/12/01 08:44:36;;;;;;;42.13;20.17;;;;;;;;;;5280115;28;20098;-78
2023/12/01 08:47:08;;;;;;;39.47;20.70;;;;;;;;;;5282201;28;20032;-78
2023/12/01 08:49:42;;;;;;;41.30;20.57;;;;;;;;;;5282057;28;20089;-79
2023/12/01 08:52:13;;;;;;;38.40;19.73;;;;;;;;;;5281025;28;20051;-79
2023/12/01 08:54:44;;;;;;;40.60;22.53;;;;;;;;;;5281765;28;20456;-80
2023/12/01 08:57:15;;;;;;;40.10;20.60;;;;;;;;;;5281589;28;20053;-80
2023/12/01 08:59:47;;;;;;;40.63;20.57;;;;;;;;;;5281893;28;20020;-79
2023/12/01 09:02:18;;;;;;;35.63;19.30;;;;;;;;;;5281543;28;20028;-78
2023/12/01 09:04:49;;;;;;;41.20;20.87;;;;;;;;;;5280552;28;20013;-78
2023/12/01 09:07:20;;;;;;;40.00;21.43;;;;;;;;;;5281411;28;20487;-77
2023/12/01 09:09:51;;;;;;;40.38;19.96;;;;;;;;;;5281874;28;20020;-80
2023/12/01 09:12:22;;;;;;;37.73;19.60;;;;;;;;;;5280330;28;20115;-78
2023/12/01 09:14:54;;;;;;;37.03;20.57;;;;;;;;;;5282143;28;20443;-80
2023/12/01 09:17:25;;;;;;;37.53;19.53;;;;;;;;;;5281337;28;20107;-81
2023/12/01 09:19:56;;;;;;;34.70;18.37;;;;;;;;;;5280166;28;20031;-79
2023/12/01 09:22:27;;;;;;;33.20;18.07;;;;;;;;;;5281401;28;20494;-81
2023/12/01 09:24:58;;;;;;;30.97;16.70;;;;;;;;;;5280741;28;20475;-80
2023/12/01 09:27:29;;;;;;;31.97;16.87;;;;;;;;;;5280921;28;20410;-80
2023/12/01 09:30:01;;;;;;;25.10;13.87;;;;;;;;;;5281268;28;20013;-81
2023/12/01 09:32:32;;;;;;;24.47;14.00;;;;;;;;;;5280399;28;20445;-81
2023/12/01 09:35:03;;;;;;;27.37;14.03;;;;;;;;;;5281597;28;20476;-82
2023/12/01 09:37:34;;;;;;;22.60;13.17;;;;;;;;;;5281332;28;20032;-82
2023/12/01 09:40:06;;;;;;;20.77;12.53;;;;;;;;;;5280383;28;20387;-81
2023/12/01 09:42:39;;;;;;;23.23;12.83;;;;;;;;;;5281052;28;20020;-80
2023/12/01 09:45:15;;;;;;;25.37;14.37;;;;;;;;;;5281393;28;20115;-80
2023/12/01 09:47:51;;;;;;;27.23;15.33;;;;;;;;;;5280542;28;20044;-79
2023/12/01 09:50:22;;;;;;;24.00;13.63;;;;;;;;;;5281176;28;20387;-81
2023/12/01 09:52:53;;;;;;;26.57;14.00;;;;;;;;;;5281466;28;20048;-78
2023/12/01 09:55:25;;;;;;;23.97;13.00;;;;;;;;;;5280174;28;20028;-76
2023/12/01 09:57:57;;;;;;;23.83;13.50;;;;;;;;;;5280465;28;20028;-78
2023/12/01 10:00:28;;;;;;;22.03;13.20;;;;;;;;;;5279958;28;20507;-78
2023/12/01 10:02:59;;;;;;;21.27;13.20;;;;;;;;;;5280624;28;20040;-77
2023/12/01 10:05:32;;;;;;;18.60;11.90;;;;;;;;;;5280803;28;20013;-77
2023/12/01 10:08:07;;;;;;;22.43;12.60;;;;;;;;;;5280044;28;20024;-78
2023/12/01 10:10:38;;;;;;;20.33;12.03;;;;;;;;;;5280483;28;20027;-78
2023/12/01 10:13:11;;;;;;;21.23;12.30;;;;;;;;;;5280600;28;20017;-79
2023/12/01 10:15:43;;;;;;;20.80;12.23;;;;;;;;;;5280087;28;20029;-79
2023/12/01 10:18:16;;;;;;;23.13;13.93;;;;;;;;;;5280960;28;20582;-80
2023/12/01 10:20:56;;;;;;;21.33;13.20;;;;;;;;;;5280952;28;20013;-77
2023/12/01 10:23:30;;;;;;;20.73;12.77;;;;;;;;;;5279835;28;20052;-75
2023/12/01 10:26:03;;;;;;;23.70;12.97;;;;;;;;;;5280333;28;20425;-74
2023/12/01 10:28:43;;;;;;;23.97;13.17;;;;;;;;;;5279867;28;20027;-74
2023/12/01 10:31:14;;;;;;;;;;;;;;;;;;5281051;28;20070;-80
2023/12/01 10:33:46;;;;;;;19.50;12.73;;;;;;;;;;5280752;28;19904;-82
2023/12/01 10:36:19;;;;;;;19.43;11.53;;;;;;;;;;5281523;28;20024;-81
2023/12/01 10:38:52;;;;;;;22.60;13.83;;;;;;;;;;5289235;28;20020;-82
2023/12/01 10:41:23;;;;;;;23.30;14.30;;;;;;;;;;5285857;28;20021;-82
2023/12/01 10:43:55;;;;;;;21.57;12.07;;;;;;;;;;5284191;28;20024;-82
2023/12/01 10:46:27;;;;;;;23.70;12.80;;;;;;;;;;5284106;28;20423;-82
2023/12/01 10:48:59;;;;;;;26.53;12.67;;;;;;;;;;5284026;28;20043;-82
2023/12/01 10:51:30;;;;;;;19.90;12.67;;;;;;;;;;5283236;28;20039;-83
2023/12/01 10:54:02;;;;;;;19.83;11.60;;;;;;;;;;5283899;28;20060;-82
2023/12/01 10:56:35;;;;;;;18.30;11.57;;;;;;;;;;5284024;28;20066;-82
2023/12/01 10:59:08;;;;;;;21.77;13.67;;;;;;;;;;5283278;28;20025;-82
2023/12/01 11:01:39;;;;;;;21.87;12.40;;;;;;;;;;5283981;28;20021;-81
2023/12/01 11:04:11;;;;;;;18.47;11.10;;;;;;;;;;5283424;28;20036;-81
2023/12/01 11:06:51;;;;;;;19.50;11.57;;;;;;;;;;5284017;28;20036;-82
2023/12/01 11:09:25;;;;;;;22.00;12.13;;;;;;;;;;5283544;28;20017;-82
2023/12/01 11:12:02;;;;;;;18.13;11.37;;;;;;;;;;5283083;28;20098;-82
2023/12/01 11:14:35;;;;;;;20.10;12.10;;;;;;;;;;5283968;28;20027;-82
2023/12/01 11:17:06;;;;;;;21.50;12.87;;;;;;;;;;5283455;28;20099;-81
2023/12/01 11:19:38;;;;;;;21.63;12.10;;;;;;;;;;5282777;28;20539;-82
2023/12/01 11:22:26;;;;;;;21.33;12.93;;;;;;;;;;5283610;28;20046;-82
2023/12/01 11:24:57;;;;;;;16.45;10.43;;;;;;;;;;5282944;28;20493;-82
2023/12/01 11:27:31;;;;;;;16.10;10.53;;;;;;;;;;5283685;28;20028;-81
2023/12/01 11:30:07;;;;;;;18.60;11.37;;;;;;;;;;5283319;28;20021;-82
2023/12/01 11:32:39;;;;;;;16.63;10.03;;;;;;;;;;5282742;28;20412;-81
2023/12/01 11:35:11;;;;;;;18.30;11.30;;;;;;;;;;5282943;28;20016;-82
2023/12/01 11:38:03;;;;;;;18.30;11.77;;;;;;;;;;5283616;28;20074;-82
2023/12/01 11:40:37;;;;;;;19.30;11.40;;;;;;;;;;5282847;28;20067;-82
2023/12/01 11:43:10;;;;;;;19.23;11.27;;;;;;;;;;5283213;28;20020;-82
2023/12/01 11:45:42;;;;;;;20.40;11.10;;;;;;;;;;5283497;28;20464;-81
2023/12/01 11:48:13;;;;;;;18.60;10.73;;;;;;;;;;5281800;28;20039;-82
2023/12/01 11:50:44;;;;;;;17.93;11.13;;;;;;;;;;5283341;28;20040;-82
2023/12/01 11:53:17;;;;;;;21.00;11.93;;;;;;;;;;5282058;28;20052;-82
2023/12/01 11:55:49;;;;;;;16.83;11.10;;;;;;;;;;5283005;28;20062;-81
2023/12/01 11:58:21;;;;;;;20.43;11.67;;;;;;;;;;5282941;28;20483;-83
2023/12/01 12:00:53;;;;;;;22.13;13.27;;;;;;;;;;5282603;28;20012;-81
2023/12/01 12:03:24;;;;;;;20.47;11.97;;;;;;;;;;5282402;28;20095;-81
2023/12/01 12:05:55;;;;;;;21.03;11.73;;;;;;;;;;5283279;28;20562;-81
2023/12/01 12:08:27;;;;;;;23.03;12.30;;;;;;;;;;5281497;28;20051;-81
2023/12/01 12:10:59;;;;;;;20.13;12.37;;;;;;;;;;5282738;28;20048;-82
2023/12/01 12:13:30;;;;;;;18.30;11.47;;;;;;;;;;5282907;28;20016;-83
2023/12/01 12:16:01;;;;;;;16.20;10.60;;;;;;;;;;5282038;28;20024;-83
2023/12/01 12:18:33;;;;;;;17.90;10.57;;;;;;;;;;5282392;28;20059;-83
2023/12/01 12:21:05;;;;;;;18.90;10.97;;;;;;;;;;5281836;28;20021;-83
2023/12/01 12:23:36;;;;;;;16.90;10.23;;;;;;;;;;5282614;28;20039;-82
2023/12/01 12:26:14;;;;;;;19.83;11.83;;;;;;;;;;5282794;28;20025;-83
2023/12/01 12:28:46;;;;;;;21.53;12.30;;;;;;;;;;5286906;28;20493;-81
2023/12/01 12:31:18;;;;;;;17.03;10.80;;;;;;;;;;5285072;28;20016;-82
2023/12/01 12:33:50;;;;;;;17.80;11.27;;;;;;;;;;5282407;28;20095;-83
2023/12/01 12:36:23;;;;;;;16.77;10.10;;;;;;;;;;5280963;28;20037;-82
2023/12/01 12:38:58;;;;;;;15.70;9.17;;;;;;;;;;5282372;28;20395;-83
2023/12/01 12:41:30;;;;;;;17.43;11.23;;;;;;;;;;5282146;28;20047;-82
2023/12/01 12:44:02;;;;;;;14.60;9.20;;;;;;;;;;5281192;28;20076;-82
2023/12/01 12:46:34;;;;;;;15.57;9.20;;;;;;;;;;5282140;28;20021;-81
2023/12/01 12:49:09;;;;;;;16.00;9.37;;;;;;;;;;5282058;28;20013;-82
2023/12/01 12:51:40;;;;;;;15.37;8.93;;;;;;;;;;5281496;28;20035;-82
2023/12/01 12:54:12;;;;;;;17.13;10.43;;;;;;;;;;5281495;28;20041;-83
2023/12/01 12:56:44;;;;;;;16.73;10.20;;;;;;;;;;5281209;28;20039;-82
2023/12/01 12:59:15;;;;;;;15.37;8.90;;;;;;;;;;5280657;28;20035;-83
2023/12/01 13:01:46;;;;;;;20.04;11.56;;;;;;;;;;5281885;28;20024;-72
2023/12/01 13:04:17;;;;;;;16.33;9.77;;;;;;;;;;5280837;28;20020;-83
2023/12/01 13:06:48;;;;;;;17.10;9.70;;;;;;;;;;5281593;28;20459;-83
2023/12/01 13:09:20;;;;;;;19.27;9.73;;;;;;;;;;5281932;28;20459;-79
2023/12/01 13:11:51;;;;;;;14.90;9.30;;;;;;;;;;5280979;28;20020;-83
2023/12/01 13:14:22;;;;;;;14.47;9.03;;;;;;;;;;5281381;28;20554;-82
2023/12/01 13:16:53;;;;;;;20.83;8.97;;;;;;;;;;5282104;28;20024;-82
2023/12/01 13:19:25;;;;;;;16.07;10.03;;;;;;;;;;5280753;28;20031;-84
2023/12/01 13:21:57;;;;;;;16.60;9.73;;;;;;;;;;5281946;28;20094;-81
2023/12/01 13:24:28;;;;;;;16.00;9.93;;;;;;;;;;5281155;28;20467;-81
2023/12/01 13:26:59;;;;;;;18.10;9.97;;;;;;;;;;5281696;28;20028;-82
2023/12/01 13:29:30;;;;;;;18.27;9.87;;;;;;;;;;5282050;28;20024;-81
2023/12/01 13:32:02;;;;;;;16.93;10.10;;;;;;;;;;5281039;28;20426;-81
2023/12/01 13:34:33;;;;;;;15.97;9.60;;;;;;;;;;5282026;28;20048;-79
2023/12/01 13:37:04;;;;;;;16.27;9.60;;;;;;;;;;5281398;28;20032;-79
2023/12/01 13:39:35;;;;;;;17.93;9.80;;;;;;;;;;5280617;28;20028;-79
2023/12/01 13:42:07;;;;;;;16.70;9.40;;;;;;;;;;5281674;28;20048;-82
2023/12/01 13:44:38;;;;;;;15.77;9.70;;;;;;;;;;5281854;28;20074;-81
2023/12/01 13:47:09;;;;;;;18.53;10.00;;;;;;;;;;5277514;28;20032;-83
2023/12/01 13:49:40;;;;;;;16.47;9.13;;;;;;;;;;5280797;28;20112;-82
2023/12/01 13:52:11;;;;;;;16.33;9.53;;;;;;;;;;5281187;28;20056;-82
2023/12/01 13:54:42;;;;;;;17.70;9.70;;;;;;;;;;5280536;28;20056;-82
2023/12/01 13:57:14;;;;;;;15.30;9.07;;;;;;;;;;5281450;28;20483;-81
2023/12/01 13:59:45;;;;;;;17.10;8.67;;;;;;;;;;5280981;28;20013;-81
2023/12/01 14:02:18;;;;;;;16.60;9.67;;;;;;;;;;5281120;28;20071;-82
2023/12/01 14:04:49;;;;;;;18.73;10.27;;;;;;;;;;5281038;28;20027;-82
2023/12/01 14:07:21;;;;;;;15.93;9.73;;;;;;;;;;5280506;28;20025;-84
2023/12/01 14:09:52;;;;;;;15.93;9.13;;;;;;;;;;5281648;28;20043;-83
2023/12/01 14:12:23;;;;;;;20.10;9.97;;;;;;;;;;5285117;28;20029;-84
2023/12/01 14:14:55;;;;;;;16.40;8.80;;;;;;;;;;5282865;28;20126;-82
2023/12/01 14:17:26;;;;;;;16.80;9.73;;;;;;;;;;5268012;28;20036;-81
2023/12/01 14:19:57;;;;;;;14.17;8.17;;;;;;;;;;5264887;28;20025;-83
2023/12/01 14:22:28;;;;;;;14.90;8.43;;;;;;;;;;5265250;28;20437;-82
2023/12/01 14:25:00;;;;;;;15.67;9.10;;;;;;;;;;5265198;28;20021;-82
2023/12/01 14:27:32;;;;;;;18.63;9.57;;;;;;;;;;5263457;28;20041;-84
2023/12/01 14:30:03;;;;;;;20.33;9.83;;;;;;;;;;5261980;28;20029;-82
2023/12/01 14:32:36;;;;;;;15.47;9.07;;;;;;;;;;5263235;28;20452;-84
2023/12/01 14:35:07;;;;;;;17.43;9.60;;;;;;;;;;5265022;28;20501;-83
2023/12/01 14:37:41;;;;;;;17.17;9.30;;;;;;;;;;5264228;28;20029;-84
2023/12/01 14:40:12;;;;;;;18.13;10.27;;;;;;;;;;5264058;28;20025;-84
2023/12/01 14:42:44;;;;;;;17.50;10.10;;;;;;;;;;5264786;28;20016;-83
2023/12/01 14:45:15;;;;;;;19.43;10.57;;;;;;;;;;5263834;28;20040;-84